Time;durP1;ratioP1;P1;durP2;ratioP2;P2;SDS_P1;SDS_P2;PMS_P1;PMS_P2;Temp;Humidity;BMP_temperature;BMP_pressure;BME280_temperature;BME280_humidity;BME280_pressure;Samples;Min_cycle;Max_cycle;Signal;HPM_P1;HPM_P2
2022/04/01 03:01:46;;;;;;;1.33;1.20;;;20.30;47.10;;;;;;5288582;23;46045;-52
2022/04/01 03:04:12;;;;;;;1.25;1.15;;;20.30;47.10;;;;;;4953162;28;46192;-54
2022/04/01 03:06:38;;;;;;;1.50;1.15;;;20.20;47.10;;;;;;4959604;28;45250;-53
2022/04/01 03:09:07;;;;;;;1.40;1.20;;;20.20;47.10;;;;;;4959260;28;45303;-53
2022/04/01 03:11:36;;;;;;;1.05;0.95;;;20.20;47.10;;;;;;4942364;28;45031;-58
2022/04/01 03:14:06;;;;;;;2.08;1.40;;;20.20;47.10;;;;;;4956496;28;45314;-55
2022/04/01 03:16:32;;;;;;;1.20;1.10;;;20.20;47.10;;;;;;4956592;28;45396;-56
2022/04/01 03:18:59;;;;;;;1.33;1.23;;;20.20;47.70;;;;;;4954714;28;45251;-57
2022/04/01 03:21:25;;;;;;;1.48;1.38;;;20.20;47.20;;;;;;4943017;28;45518;-53
2022/04/01 03:23:51;;;;;;;1.17;1.08;;;20.20;47.20;;;;;;4955407;28;46190;-53
2022/04/01 03:26:17;;;;;;;1.67;1.25;;;20.10;47.10;;;;;;4955245;28;44705;-55
2022/04/01 03:28:42;;;;;;;1.27;1.10;;;20.10;47.20;;;;;;4955874;28;44956;-55
2022/04/01 03:31:09;;;;;;;1.15;1.05;;;20.10;47.30;;;;;;4954157;28;45452;-52
2022/04/01 03:33:36;;;;;;;1.20;1.05;;;20.10;47.80;;;;;;4971299;28;46259;-56
2022/04/01 03:36:01;;;;;;;1.35;1.23;;;20.10;47.80;;;;;;4956492;28;45261;-53
2022/04/01 03:38:27;;;;;;;1.30;1.20;;;20.00;47.20;;;;;;4954171;28;44743;-55
2022/04/01 03:40:53;;;;;;;1.33;1.23;;;20.10;47.20;;;;;;4954990;28;44950;-54
2022/04/01 03:43:23;;;;;;;1.30;1.20;;;20.00;47.20;;;;;;4956781;28;45386;-55
2022/04/01 03:45:49;;;;;;;1.40;1.30;;;20.10;47.30;;;;;;4955941;28;45083;-57
2022/04/01 03:48:23;;;;;;;1.42;1.30;;;20.10;47.30;;;;;;4968651;28;44967;-54
2022/04/01 03:50:52;;;;;;;1.20;1.10;;;20.00;47.30;;;;;;4938098;28;45254;-56
2022/04/01 03:53:19;;;;;;;1.25;1.15;;;20.00;47.30;;;;;;4955220;28;45962;-54
2022/04/01 03:55:45;;;;;;;1.10;1.00;;;20.00;47.30;;;;;;4938493;28;45632;-51
2022/04/01 03:58:13;;;;;;;1.40;1.30;;;20.00;47.40;;;;;;4956225;28;45205;-53
2022/04/01 04:00:41;;;;;;;1.83;1.63;;;19.90;47.40;;;;;;4947752;28;45440;-51
2022/04/01 04:03:08;;;;;;;1.17;1.08;;;19.90;47.40;;;;;;4952577;28;45800;-53
2022/04/01 04:05:36;;;;;;;1.25;1.15;;;19.90;47.40;;;;;;4956862;28;44841;-57
2022/04/01 04:08:05;;;;;;;1.02;0.93;;;19.90;47.50;;;;;;4955462;28;45423;-51
2022/04/01 04:10:34;;;;;;;1.60;1.50;;;19.90;47.40;;;;;;4953583;28;45058;-55
2022/04/01 04:13:00;;;;;;;1.67;1.30;;;19.90;47.40;;;;;;4924568;28;45339;-54
2022/04/01 04:15:26;;;;;;;1.33;1.23;;;19.90;47.50;;;;;;4937225;28;44663;-57
2022/04/01 04:17:54;;;;;;;1.23;1.10;;;19.80;47.40;;;;;;4953856;28;45402;-55
2022/04/01 04:20:35;;;;;;;1.40;1.30;;;19.80;47.40;;;;;;4916205;28;45493;-53
2022/04/01 04:23:13;;;;;;;1.27;1.17;;;19.80;47.50;;;;;;4968611;28;45940;-51
2022/04/01 04:25:39;;;;;;;1.35;1.25;;;19.80;47.50;;;;;;4970057;28;45562;-55
2022/04/01 04:28:09;;;;;;;1.58;1.42;;;19.80;47.50;;;;;;4959996;28;45387;-54
2022/04/01 04:30:38;;;;;;;1.60;1.50;;;19.80;47.50;;;;;;4953261;28;45220;-53
2022/04/01 04:33:08;;;;;;;1.50;1.38;;;19.70;47.50;;;;;;4940713;28;46447;-53
2022/04/01 04:35:38;;;;;;;1.33;1.23;;;19.80;47.50;;;;;;4956023;28;45354;-54
2022/04/01 04:38:04;;;;;;;1.60;1.50;;;19.80;47.60;;;;;;4953869;28;45389;-54
2022/04/01 04:40:30;;;;;;;1.88;1.67;;;19.80;47.60;;;;;;4951449;28;45548;-58
2022/04/01 04:42:56;;;;;;;1.38;1.27;;;19.70;47.50;;;;;;4952551;28;46034;-53
2022/04/01 04:45:22;;;;;;;1.52;1.42;;;19.70;47.60;;;;;;4931212;28;45214;-56
2022/04/01 04:47:48;;;;;;;1.55;1.35;;;19.70;47.60;;;;;;4951991;28;45393;-53
2022/04/01 04:50:16;;;;;;;3.67;1.60;;;19.70;48.20;;;;;;4936535;28;45373;-53
2022/04/01 04:52:42;;;;;;;1.55;1.45;;;19.60;47.50;;;;;;4953101;28;46345;-50
2022/04/01 04:55:10;;;;;;;1.50;1.40;;;19.70;47.60;;;;;;4941540;28;45169;-51
2022/04/01 04:57:35;;;;;;;1.77;1.20;;;19.60;47.60;;;;;;4954194;28;44973;-55
2022/04/01 05:00:01;;;;;;;2.00;1.75;;;19.60;47.60;;;;;;4942533;28;45440;-54
2022/04/01 05:03:06;;;;;;;1.65;1.40;;;19.60;47.60;;;;;;4959185;28;45843;-55
2022/04/01 05:05:47;;;;;;;1.83;1.50;;;19.60;47.70;;;;;;4955476;28;45420;-57
2022/04/01 05:08:28;;;;;;;3.00;1.80;;;19.60;47.70;;;;;;4953414;28;45565;-54
2022/04/01 05:11:00;;;;;;;1.17;1.08;;;19.60;47.70;;;;;;4956754;28;44910;-57
2022/04/01 05:13:28;;;;;;;1.92;1.65;;;19.60;47.80;;;;;;4954620;28;46121;-56
2022/04/01 05:15:55;;;;;;;1.65;1.50;;;19.60;47.80;;;;;;4955263;28;45352;-55
2022/04/01 05:18:32;;;;;;;2.20;2.00;;;19.50;47.70;;;;;;4954845;28;45182;-53
2022/04/01 05:21:04;;;;;;;1.85;1.60;;;19.50;47.70;;;;;;4936979;28;44755;-54
2022/04/01 05:23:55;;;;;;;1.58;1.48;;;19.50;47.70;;;;;;4954336;28;46383;-52
2022/04/01 05:26:25;;;;;;;1.65;1.55;;;19.50;47.80;;;;;;4938469;28;45875;-52
2022/04/01 05:28:54;;;;;;;2.08;1.85;;;19.50;47.70;;;;;;4956236;28;44677;-56
2022/04/01 05:31:30;;;;;;;1.65;1.50;;;19.50;47.80;;;;;;4953806;28;45212;-55
2022/04/01 05:34:14;;;;;;;1.40;1.30;;;19.50;47.90;;;;;;4939193;28;45649;-54
2022/04/01 05:36:40;;;;;;;1.50;1.38;;;19.40;47.80;;;;;;4954539;28;45227;-53
2022/04/01 05:39:05;;;;;;;1.80;1.70;;;19.40;47.80;;;;;;4956685;28;45598;-57
2022/04/01 05:41:31;;;;;;;1.90;1.70;;;19.40;47.80;;;;;;4952789;28;45336;-52
2022/04/01 05:43:57;;;;;;;2.03;1.60;;;19.40;47.80;;;;;;4969544;28;46323;-52
2022/04/01 05:46:24;;;;;;;1.58;1.48;;;19.40;47.90;;;;;;4955312;28;45122;-54
2022/04/01 05:48:50;;;;;;;2.13;1.60;;;19.40;47.90;;;;;;4941008;28;44970;-55
2022/04/01 05:51:15;;;;;;;1.60;1.45;;;19.40;47.90;;;;;;4939488;28;44824;-52
2022/04/01 05:53:46;;;;;;;1.80;1.65;;;19.40;47.90;;;;;;4937552;28;46591;-56
2022/04/01 05:56:12;;;;;;;1.92;1.67;;;19.30;47.80;;;;;;4954081;28;45521;-55
2022/04/01 05:58:38;;;;;;;1.95;1.65;;;19.30;47.80;;;;;;4959300;28;45557;-58
2022/04/01 06:01:28;;;;;;;1.75;1.52;;;19.30;47.80;;;;;;4962264;28;45406;-57
2022/04/01 06:04:12;;;;;;;1.30;1.10;;;19.30;47.90;;;;;;4953356;28;45910;-56
2022/04/01 06:06:42;;;;;;;1.55;1.45;;;19.30;47.90;;;;;;4954006;28;45221;-57
2022/04/01 06:09:38;;;;;;;1.90;1.80;;;19.30;47.90;;;;;;4936260;28;44896;-61
2022/04/01 06:12:29;;;;;;;3.40;2.95;;;19.30;48.10;;;;;;4937387;28;45236;-61
2022/04/01 06:15:06;;;;;;;4.68;3.63;;;19.30;47.00;;;;;;4966608;28;46226;-61
2022/04/01 06:17:43;;;;;;;3.92;3.50;;;19.20;46.30;;;;;;4942476;28;45261;-61
2022/04/01 06:20:09;;;;;;;4.22;3.67;;;19.20;45.60;;;;;;4963314;28;44943;-61
2022/04/01 06:22:43;;;;;;;3.15;2.85;;;19.30;45.90;;;;;;4960471;28;44997;-62
2022/04/01 06:25:17;;;;;;;2.88;2.40;;;19.40;46.00;;;;;;4940825;28;45215;-61
2022/04/01 06:27:48;;;;;;;2.33;2.10;;;19.50;45.90;;;;;;4959454;28;45196;-62
2022/04/01 06:30:15;;;;;;;2.45;2.00;;;19.60;45.60;;;;;;4949253;28;45098;-61
2022/04/01 06:33:15;;;;;;;1.77;1.67;;;19.80;45.40;;;;;;4952233;28;45494;-61
2022/04/01 06:35:50;;;;;;;2.20;2.00;;;19.90;45.00;;;;;;4940133;28;46945;-61
2022/04/01 06:38:25;;;;;;;2.42;1.83;;;20.10;45.00;;;;;;4938004;28;44910;-62
2022/04/01 06:40:58;;;;;;;2.15;1.80;;;20.10;44.90;;;;;;4937159;28;45253;-62
2022/04/01 06:43:23;;;;;;;1.77;1.67;;;20.30;44.90;;;;;;4944670;28;44919;-60
2022/04/01 06:45:49;;;;;;;1.67;1.58;;;20.40;44.80;;;;;;4956843;28;46467;-60
2022/04/01 06:48:14;;;;;;;1.55;1.30;;;20.50;44.70;;;;;;4924710;28;44891;-61
2022/04/01 06:50:41;;;;;;;1.48;1.27;;;20.60;44.60;;;;;;4956745;28;45188;-60
2022/04/01 06:53:07;;;;;;;1.40;1.30;;;20.70;44.60;;;;;;4958428;28;45024;-62
2022/04/01 06:55:32;;;;;;;1.80;1.42;;;20.80;44.50;;;;;;4946348;28;46237;-60
2022/04/01 06:57:58;;;;;;;1.30;1.20;;;20.90;44.50;;;;;;4959297;28;45535;-61
2022/04/01 07:00:23;;;;;;;1.27;1.15;;;21.00;44.40;;;;;;4964721;28;45397;-60
2022/04/01 07:02:49;;;;;;;1.38;1.20;;;21.10;44.30;;;;;;4952580;28;45568;-61
2022/04/01 07:05:15;;;;;;;1.40;1.20;;;21.20;44.20;;;;;;4943068;28;45204;-61
2022/04/01 07:07:44;;;;;;;1.25;1.10;;;21.30;44.30;;;;;;4957084;28;45179;-53
2022/04/01 07:10:13;;;;;;;1.98;1.20;;;21.40;44.10;;;;;;4956174;28;45293;-55
2022/04/01 07:12:38;;;;;;;1.45;1.20;;;21.50;43.90;;;;;;4956917;28;45479;-58
2022/04/01 07:15:04;;;;;;;2.40;1.48;;;21.50;43.90;;;;;;4956959;28;45568;-55
2022/04/01 07:17:30;;;;;;;1.20;1.10;;;21.60;43.90;;;;;;4957366;28;44975;-53
2022/04/01 07:19:56;;;;;;;1.20;1.10;;;21.70;43.90;;;;;;4956955;28;45323;-54
2022/04/01 07:22:21;;;;;;;0.88;0.80;;;21.70;43.80;;;;;;4942822;28;45103;-54
2022/04/01 07:24:47;;;;;;;1.13;1.00;;;21.80;43.80;;;;;;4956173;28;46378;-54
2022/04/01 07:27:13;;;;;;;1.42;1.10;;;21.90;43.70;;;;;;4956307;28;45364;-55
2022/04/01 07:29:38;;;;;;;2.13;1.17;;;21.90;43.70;;;;;;4948264;28;45403;-56
2022/04/01 07:34:49;;;;;;;2.35;0.95;;;22.10;44.20;;;;;;4961200;28;45816;-54
2022/04/01 07:37:15;;;;;;;1.42;1.00;;;22.20;43.60;;;;;;4955331;28;45299;-54
2022/04/01 07:39:40;;;;;;;1.45;0.98;;;22.30;43.60;;;;;;4955337;28;45192;-57
2022/04/01 07:42:06;;;;;;;0.90;0.90;;;22.40;43.60;;;;;;4970989;28;45227;-54
2022/04/01 07:44:32;;;;;;;1.10;1.00;;;22.50;43.50;;;;;;4956465;28;45968;-55
2022/04/01 07:46:57;;;;;;;1.25;0.95;;;22.50;43.40;;;;;;4955683;28;45667;-54
2022/04/01 07:49:23;;;;;;;1.38;1.08;;;22.60;43.40;;;;;;4937454;28;45464;-53
2022/04/01 07:51:49;;;;;;;1.70;1.15;;;22.60;43.30;;;;;;4952420;28;45520;-58
2022/04/01 07:54:15;;;;;;;0.85;0.80;;;22.70;43.30;;;;;;4953220;28;46260;-53
2022/04/01 07:56:41;;;;;;;1.00;0.90;;;22.70;43.20;;;;;;4937580;28;45218;-57
2022/04/01 07:59:07;;;;;;;1.23;1.13;;;22.90;43.30;;;;;;4941661;28;44864;-54
2022/04/01 08:01:34;;;;;;;2.50;0.90;;;22.90;43.20;;;;;;4954203;28;45510;-59
2022/04/01 08:03:59;;;;;;;1.00;0.80;;;22.90;43.50;;;;;;4955610;28;45305;-54
2022/04/01 08:06:25;;;;;;;1.63;0.80;;;23.00;43.20;;;;;;4954883;28;45191;-56
2022/04/01 08:08:51;;;;;;;1.30;0.80;;;23.00;43.10;;;;;;4956940;28;44911;-55
2022/04/01 08:11:16;;;;;;;1.17;1.00;;;23.10;43.10;;;;;;4958123;28;45451;-53
2022/04/01 08:13:42;;;;;;;;;;;23.10;43.00;;;;;;4958391;28;46200;-56
2022/04/01 08:16:08;;;;;;;;;;;23.20;42.70;;;;;;4956058;28;45184;-53
2022/04/01 08:18:34;;;;;;;0.98;0.90;;;23.20;42.70;;;;;;4956218;28;45512;-57
2022/04/01 08:21:00;;;;;;;1.67;0.80;;;23.30;43.00;;;;;;4936003;28;45293;-59
2022/04/01 08:23:26;;;;;;;0.85;0.73;;;23.30;42.90;;;;;;4957338;28;46157;-55
2022/04/01 08:25:51;;;;;;;0.90;0.80;;;23.40;42.90;;;;;;4954710;28;45154;-55
2022/04/01 08:28:17;;;;;;;0.90;0.70;;;23.50;42.90;;;;;;4948286;28;45145;-55
2022/04/01 08:30:43;;;;;;;0.73;0.70;;;23.50;42.90;;;;;;4965033;28;45403;-50
2022/04/01 08:33:08;;;;;;;1.13;0.80;;;23.50;42.90;;;;;;4955143;28;46562;-56
2022/04/01 08:35:34;;;;;;;1.35;0.75;;;23.50;42.80;;;;;;4954908;28;45435;-53
2022/04/01 08:38:00;;;;;;;0.75;0.75;;;23.60;42.70;;;;;;4955405;28;45354;-54
2022/04/01 08:40:27;;;;;;;1.05;0.70;;;23.60;42.70;;;;;;4955278;28;45744;-50
2022/04/01 08:42:52;;;;;;;1.33;0.90;;;23.60;42.70;;;;;;4959609;28;45235;-55
2022/04/01 08:45:19;;;;;;;1.50;1.00;;;23.70;42.80;;;;;;4956608;28;45047;-55
2022/04/01 08:47:45;;;;;;;1.15;0.85;;;23.70;42.70;;;;;;4955402;28;45454;-55
2022/04/01 08:50:10;;;;;;;0.90;0.73;;;23.80;42.70;;;;;;4955604;28;45507;-58
2022/04/01 08:52:36;;;;;;;;;;;23.80;42.70;;;;;;4956603;28;46892;-53
2022/04/01 08:55:05;;;;;;;;;;;23.80;42.30;;;;;;4957269;28;45049;-55
2022/04/01 08:57:35;;;;;;;;;;;23.80;42.90;;;;;;4956466;28;44985;-51
2022/04/01 09:00:00;;;;;;;;;;;23.90;42.40;;;;;;4959522;28;45239;-58
2022/04/01 09:02:26;;;;;;;;;;;23.90;42.20;;;;;;4950009;28;45885;-54
2022/04/01 09:05:04;;;;;;;;;;;23.90;42.20;;;;;;4956605;28;45570;-55
2022/04/01 09:07:30;;;;;;;;;;;23.90;42.20;;;;;;4951923;28;45223;-54
2022/04/01 09:10:02;;;;;;;;;;;24.00;42.20;;;;;;4954924;28;45553;-53
2022/04/01 09:12:29;;;;;;;;;;;24.00;42.20;;;;;;4961515;28;45284;-54
2022/04/01 09:14:54;;;;;;;;;;;24.00;42.20;;;;;;4955015;28;45508;-55
2022/04/01 09:17:20;;;;;;;;;;;24.00;42.10;;;;;;4956177;28;45542;-53
2022/04/01 09:19:46;;;;;;;;;;;24.10;42.10;;;;;;4955566;28;45408;-54
2022/04/01 09:22:15;;;;;;;;;;;24.10;42.10;;;;;;4955773;28;45985;-52
2022/04/01 09:24:53;;;;;;;;;;;24.10;42.00;;;;;;4955484;28;44637;-56
2022/04/01 09:27:18;;;;;;;;;;;24.10;42.00;;;;;;4954079;28;45573;-55
2022/04/01 09:29:44;;;;;;;;;;;24.10;42.00;;;;;;4956368;28;45187;-52
2022/04/01 09:32:09;;;;;;;;;;;24.20;42.10;;;;;;4938216;28;46137;-55
2022/04/01 09:34:36;;;;;;;;;;;24.20;42.00;;;;;;4952735;28;45365;-54
2022/04/01 09:37:02;;;;;;;;;;;24.20;42.00;;;;;;4955890;28;45443;-55
2022/04/01 09:39:28;;;;;;;;;;;24.20;42.00;;;;;;4954051;28;44779;-54
2022/04/01 09:41:55;;;;;;;;;;;24.20;42.00;;;;;;4955838;28;46120;-54
2022/04/01 09:44:30;;;;;;;;;;;24.30;42.00;;;;;;4954117;28;45478;-57
2022/04/01 09:46:57;;;;;;;;;;;24.30;42.00;;;;;;4956019;28;45362;-52
2022/04/01 09:49:31;;;;;;;;;;;24.30;41.90;;;;;;4958346;28;45129;-54
2022/04/01 09:51:56;;;;;;;;;;;24.30;41.90;;;;;;4957880;28;45998;-53
2022/04/01 09:54:22;;;;;;;;;;;24.30;41.90;;;;;;4979272;28;45353;-55
2022/04/01 09:56:54;;;;;;;;;;;24.40;41.90;;;;;;4958698;28;45273;-55
2022/04/01 09:59:20;;;;;;;;;;;24.40;41.90;;;;;;4957932;28;45343;-55
2022/04/01 10:01:45;;;;;;;;;;;24.40;41.90;;;;;;4956469;28;45129;-56
2022/04/01 10:04:12;;;;;;;;;;;24.40;41.80;;;;;;4955095;28;45176;-55
2022/04/01 10:06:39;;;;;;;;;;;24.40;41.80;;;;;;4954771;28;45278;-53
2022/04/01 10:09:07;;;;;;;;;;;24.40;41.90;;;;;;4957937;28;45340;-53
2022/04/01 10:11:33;;;;;;;;;;;24.40;41.80;;;;;;4964156;28;45995;-55
2022/04/01 10:14:03;;;;;;;;;;;24.40;41.80;;;;;;4931660;28;44731;-55
2022/04/01 10:16:30;;;;;;;;;;;24.40;42.40;;;;;;4948297;28;45388;-53
2022/04/01 10:18:57;;;;;;;;;;;24.50;41.80;;;;;;4959172;28;45649;-57
2022/04/01 10:21:22;;;;;;;;;;;24.50;41.70;;;;;;4958251;28;47065;-54
2022/04/01 10:23:52;;;;;;;;;;;24.50;41.80;;;;;;4957820;28;45138;-52
2022/04/01 10:26:17;;;;;;;;;;;24.50;41.90;;;;;;4954363;28;45015;-55
2022/04/01 10:28:43;;;;;;;;;;;24.50;41.80;;;;;;4947564;28;46061;-52
2022/04/01 10:31:12;;;;;;;;;;;24.50;41.80;;;;;;4959111;28;45941;-56
2022/04/01 10:33:38;;;;;;;0.60;0.50;;;24.50;41.80;;;;;;4961525;28;44633;-50
2022/04/01 10:36:22;;;;;;;0.50;0.50;;;24.50;42.70;;;;;;4951746;28;45240;-58
2022/04/01 10:38:48;;;;;;;0.50;0.50;;;24.50;41.70;;;;;;4961997;28;44906;-52
2022/04/01 10:41:15;;;;;;;0.70;0.70;;;24.50;42.10;;;;;;4952854;28;46363;-55
2022/04/01 10:43:45;;;;;;;0.60;0.60;;;24.50;41.90;;;;;;4964134;28;44750;-52
2022/04/01 10:46:13;;;;;;;0.73;0.73;;;24.50;42.00;;;;;;4961217;28;46337;-56
2022/04/01 10:51:46;;;;;;;1.30;0.60;;;24.50;41.90;;;;;;4900291;29;46140;-53
2022/04/01 10:54:14;;;;;;;0.50;0.50;;;24.60;41.90;;;;;;4901786;29;44944;-56
2022/04/01 10:56:40;;;;;;;0.50;0.50;;;24.60;41.90;;;;;;4930102;28;45090;-50
2022/04/01 10:59:18;;;;;;;1.30;0.80;;;24.60;41.80;;;;;;4965055;28;44716;-51
2022/04/01 11:01:53;;;;;;;1.73;0.70;;;24.60;41.50;;;;;;4959841;28;46041;-54
2022/04/01 11:04:19;;;;;;;1.35;0.80;;;24.60;41.60;;;;;;4962784;28;44940;-57
2022/04/01 11:06:55;;;;;;;0.77;0.68;;;24.60;41.80;;;;;;4965254;28;44826;-53
2022/04/01 11:09:33;;;;;;;1.20;0.70;;;24.60;41.60;;;;;;4962818;28;45288;-56
2022/04/01 11:12:23;;;;;;;0.57;0.57;;;24.60;41.50;;;;;;4967738;28;46185;-56
2022/04/01 11:14:55;;;;;;;1.25;0.80;;;24.70;41.50;;;;;;4961777;28;44754;-54
2022/04/01 11:17:27;;;;;;;0.63;0.63;;;24.70;41.60;;;;;;4962793;28;45328;-55
2022/04/01 11:20:07;;;;;;;0.70;0.50;;;24.70;41.70;;;;;;4943741;28;45251;-51
2022/04/01 11:22:34;;;;;;;0.90;0.65;;;24.70;41.50;;;;;;4959432;28;45172;-50
2022/04/01 11:24:59;;;;;;;1.00;0.60;;;24.70;41.70;;;;;;4961914;28;45548;-53
2022/04/01 11:27:25;;;;;;;0.60;0.60;;;24.70;41.70;;;;;;4960666;28;45225;-57
2022/04/01 11:30:05;;;;;;;1.23;0.70;;;24.70;41.70;;;;;;4970369;28;45479;-55
2022/04/01 11:32:31;;;;;;;0.70;0.55;;;24.70;41.50;;;;;;4957647;28;47095;-56
2022/04/01 11:34:57;;;;;;;0.70;0.70;;;24.70;41.70;;;;;;4976143;28;44751;-52
2022/04/01 11:37:24;;;;;;;0.77;0.63;;;24.70;41.70;;;;;;4962074;28;45290;-55
2022/04/01 11:39:49;;;;;;;0.40;0.40;;;24.70;41.60;;;;;;4942733;28;45452;-53
2022/04/01 11:42:15;;;;;;;0.60;0.60;;;24.70;41.60;;;;;;4949104;28;46245;-55
2022/04/01 11:44:54;;;;;;;0.63;0.60;;;24.70;41.60;;;;;;4961467;28;45373;-50
2022/04/01 11:47:32;;;;;;;0.70;0.60;;;24.80;41.40;;;;;;4958931;28;44887;-50
2022/04/01 11:50:11;;;;;;;0.80;0.63;;;24.80;41.50;;;;;;4962720;28;46160;-51
2022/04/01 11:52:46;;;;;;;0.90;0.68;;;24.80;41.40;;;;;;4960111;28;46230;-50
2022/04/01 11:55:19;;;;;;;0.80;0.63;;;24.80;41.60;;;;;;4958947;28;45354;-57
2022/04/01 11:57:45;;;;;;;0.50;0.47;;;24.80;42.10;;;;;;4951167;28;45433;-49
2022/04/01 12:00:15;;;;;;;0.80;0.70;;;24.80;41.60;;;;;;4952082;28;45906;-51
2022/04/01 12:02:41;;;;;;;0.80;0.75;;;24.80;41.60;;;;;;4956230;28;46272;-53
2022/04/01 12:05:07;;;;;;;0.90;0.70;;;24.80;41.60;;;;;;4940125;28;45199;-57
2022/04/01 12:10:24;;;;;;;1.02;0.73;;;24.80;41.60;;;;;;4951063;28;46054;-58
2022/04/01 12:13:00;;;;;;;0.70;0.70;;;24.80;41.60;;;;;;4957350;28;46102;-57
2022/04/01 12:15:39;;;;;;;0.90;0.90;;;24.80;41.40;;;;;;4952839;28;45239;-55
2022/04/01 12:18:09;;;;;;;0.88;0.60;;;24.80;41.50;;;;;;4952477;28;45335;-55
2022/04/01 12:20:42;;;;;;;0.63;0.52;;;24.80;41.50;;;;;;4954482;28;45404;-57
2022/04/01 12:23:07;;;;;;;;;;;24.80;41.40;;;;;;4957231;28;46012;-57
2022/04/01 12:25:34;;;;;;;0.82;0.60;;;24.80;41.30;;;;;;4955943;28;45279;-58
2022/04/01 12:28:07;;;;;;;0.43;0.40;;;24.80;41.60;;;;;;4942317;28;45155;-51
2022/04/01 12:30:42;;;;;;;0.88;0.60;;;24.80;41.50;;;;;;4939739;28;45383;-59
2022/04/01 12:33:09;;;;;;;0.65;0.65;;;24.80;41.50;;;;;;4937421;28;44899;-55
2022/04/01 12:35:47;;;;;;;0.82;0.70;;;24.80;41.50;;;;;;4956891;28;45210;-54
2022/04/01 12:38:13;;;;;;;0.90;0.65;;;24.80;41.50;;;;;;4944895;28;46229;-51
2022/04/01 12:40:44;;;;;;;0.88;0.73;;;24.80;41.50;;;;;;4949988;28;44713;-54
2022/04/01 12:43:30;;;;;;;0.80;0.60;;;24.80;41.40;;;;;;4953449;28;45056;-58
2022/04/01 12:46:15;;;;;;;0.70;0.70;;;24.90;41.30;;;;;;4950905;28;44886;-54
2022/04/01 12:48:41;;;;;;;0.70;0.60;;;24.80;41.30;;;;;;4956842;28;45263;-61
2022/04/01 12:51:06;;;;;;;0.55;0.55;;;24.80;41.60;;;;;;4960093;28;45328;-56
2022/04/01 12:53:32;;;;;;;0.98;0.80;;;24.80;41.50;;;;;;4956053;28;45986;-59
2022/04/01 12:56:30;;;;;;;3.55;0.70;;;24.90;41.50;;;;;;4955173;28;45216;-57
2022/04/01 12:59:04;;;;;;;0.57;0.57;;;24.90;41.20;;;;;;4957338;28;45307;-56
2022/04/01 13:01:31;;;;;;;0.57;0.57;;;24.90;41.50;;;;;;4955242;28;45347;-53
2022/04/01 13:03:57;;;;;;;1.48;0.60;;;24.90;41.50;;;;;;4957172;28;46151;-56
2022/04/01 13:06:27;;;;;;;0.70;0.70;;;24.80;41.50;;;;;;4940799;28;45459;-57
2022/04/01 13:09:11;;;;;;;0.73;0.60;;;24.90;41.50;;;;;;4955235;28;45666;-58
2022/04/01 13:11:40;;;;;;;0.63;0.60;;;24.90;41.30;;;;;;4956817;28;45481;-55
2022/04/01 13:14:22;;;;;;;0.68;0.50;;;24.90;41.50;;;;;;4948548;28;45484;-57
2022/04/01 13:16:48;;;;;;;0.70;0.65;;;24.90;41.40;;;;;;4956687;28;45204;-54
2022/04/01 13:19:19;;;;;;;1.20;1.05;;;24.90;41.60;;;;;;4956715;28;45070;-56
2022/04/01 13:21:45;;;;;;;0.70;0.70;;;24.90;41.50;;;;;;4952778;28;45411;-57
2022/04/01 13:24:11;;;;;;;1.20;0.70;;;24.90;41.50;;;;;;4957232;28;45919;-58
2022/04/01 13:26:37;;;;;;;0.60;0.60;;;24.90;41.60;;;;;;4959308;28;45610;-57
2022/04/01 13:29:03;;;;;;;0.90;0.77;;;24.90;41.50;;;;;;4959073;28;44801;-55
2022/04/01 13:31:28;;;;;;;0.52;0.52;;;24.90;41.50;;;;;;4959255;28;44765;-58
2022/04/01 13:33:56;;;;;;;1.42;0.80;;;24.90;41.50;;;;;;4958378;28;45377;-56
2022/04/01 13:36:23;;;;;;;0.60;0.60;;;25.00;41.50;;;;;;4959048;28;45272;-53
2022/04/01 13:38:49;;;;;;;1.30;0.90;;;24.90;41.50;;;;;;4960894;28;45047;-57
2022/04/01 13:41:15;;;;;;;0.65;0.65;;;24.90;41.50;;;;;;4939961;28;45351;-54
2022/04/01 13:43:41;;;;;;;0.57;0.57;;;24.90;41.50;;;;;;4955215;28;45059;-55
2022/04/01 13:46:07;;;;;;;0.82;0.60;;;24.90;41.50;;;;;;4960489;28;45263;-58
2022/04/01 13:48:32;;;;;;;1.85;0.73;;;24.90;41.50;;;;;;4959207;28;44994;-59
2022/04/01 13:50:58;;;;;;;0.70;0.70;;;25.00;41.50;;;;;;4959315;28;45267;-57
2022/04/01 13:53:24;;;;;;;0.63;0.63;;;25.00;41.50;;;;;;4946853;28;45979;-54
2022/04/01 13:55:50;;;;;;;0.73;0.52;;;25.00;41.50;;;;;;4957311;28;45546;-56
2022/04/01 13:58:16;;;;;;;1.17;0.80;;;25.00;41.50;;;;;;4959103;28;45259;-56
2022/04/01 14:00:41;;;;;;;1.08;0.90;;;24.90;41.50;;;;;;4955805;28;45057;-55
2022/04/01 14:03:07;;;;;;;1.20;0.88;;;25.00;41.60;;;;;;4954011;28;46396;-58
2022/04/01 14:05:34;;;;;;;0.93;0.70;;;25.00;41.50;;;;;;4958228;28;45307;-55
2022/04/01 14:07:59;;;;;;;0.65;0.65;;;24.90;41.50;;;;;;4958326;28;45601;-58
2022/04/01 14:10:25;;;;;;;0.70;0.60;;;24.90;41.50;;;;;;4957223;28;45457;-52
2022/04/01 14:12:51;;;;;;;0.70;0.70;;;25.00;41.50;;;;;;4939780;28;46024;-54
2022/04/01 14:15:16;;;;;;;0.82;0.60;;;25.00;41.50;;;;;;4956931;28;45255;-58
2022/04/01 14:17:42;;;;;;;0.90;0.80;;;25.00;41.50;;;;;;4941925;28;45562;-58
2022/04/01 14:20:09;;;;;;;1.13;0.90;;;25.00;41.50;;;;;;4954209;28;45473;-56
2022/04/01 14:22:35;;;;;;;0.90;0.80;;;25.00;41.50;;;;;;4956057;28;45710;-57
2022/04/01 14:25:01;;;;;;;0.80;0.63;;;25.00;41.50;;;;;;4958920;28;45498;-57
2022/04/01 14:27:27;;;;;;;1.00;0.90;;;25.00;41.50;;;;;;4943778;28;44904;-56
2022/04/01 14:32:37;;;;;;;0.85;0.75;;;25.00;41.50;;;;;;4956652;28;46925;-54
2022/04/01 14:35:04;;;;;;;0.73;0.70;;;25.00;41.50;;;;;;4957711;28;45419;-57
2022/04/01 14:37:29;;;;;;;0.60;0.60;;;25.00;41.50;;;;;;4958326;28;44898;-52
2022/04/01 14:39:55;;;;;;;0.47;0.47;;;25.00;41.40;;;;;;4941797;28;45124;-54
2022/04/01 14:42:21;;;;;;;0.90;0.80;;;25.00;41.40;;;;;;4960648;28;45399;-53
2022/04/01 14:44:46;;;;;;;1.05;0.80;;;25.00;41.50;;;;;;4955306;28;45195;-54
2022/04/01 14:47:12;;;;;;;0.98;0.50;;;25.00;41.40;;;;;;4956814;28;45471;-54
2022/04/01 14:49:38;;;;;;;0.70;0.70;;;25.00;41.40;;;;;;4939502;28;45554;-54
2022/04/01 14:52:04;;;;;;;1.00;0.73;;;25.00;41.40;;;;;;4958474;28;45338;-59
2022/04/01 14:54:30;;;;;;;0.47;0.47;;;25.00;41.40;;;;;;4958682;28;45561;-56
2022/04/01 14:56:56;;;;;;;0.80;0.60;;;25.00;41.40;;;;;;4957683;28;45307;-54
2022/04/01 14:59:24;;;;;;;0.52;0.50;;;25.00;41.40;;;;;;4958541;28;45122;-52
2022/04/01 15:01:51;;;;;;;1.15;0.77;;;25.00;41.40;;;;;;4956727;28;45890;-53
2022/04/01 15:04:16;;;;;;;0.60;0.60;;;25.00;41.40;;;;;;4964064;28;45265;-56
2022/04/01 15:06:42;;;;;;;0.65;0.65;;;25.00;41.40;;;;;;4957905;28;45006;-57
2022/04/01 15:09:07;;;;;;;0.70;0.70;;;25.00;41.40;;;;;;4957174;28;44906;-57
2022/04/01 15:11:33;;;;;;;1.95;0.65;;;25.00;41.40;;;;;;4956036;28;46979;-59
2022/04/01 15:13:59;;;;;;;0.75;0.65;;;25.00;41.40;;;;;;4957521;28;45215;-52
2022/04/01 15:16:25;;;;;;;1.45;0.70;;;25.00;41.40;;;;;;4957568;28;45537;-58
2022/04/01 15:18:50;;;;;;;0.70;0.70;;;25.00;41.30;;;;;;4958267;28;45325;-56
2022/04/01 15:21:16;;;;;;;0.63;0.63;;;25.00;41.40;;;;;;4958692;28;46009;-53
2022/04/01 15:23:41;;;;;;;0.60;0.60;;;25.00;41.40;;;;;;4958748;28;45090;-54
2022/04/01 15:26:08;;;;;;;0.93;0.77;;;25.00;41.30;;;;;;4955304;28;45263;-55
2022/04/01 15:28:33;;;;;;;0.82;0.60;;;25.00;41.30;;;;;;4940386;28;45827;-56
2022/04/01 15:30:59;;;;;;;0.63;0.63;;;25.00;41.30;;;;;;4955053;28;45420;-53
2022/04/01 15:33:25;;;;;;;0.80;0.65;;;25.00;41.40;;;;;;4958440;28;45435;-54
2022/04/01 15:35:51;;;;;;;0.75;0.65;;;25.00;41.30;;;;;;4955439;28;47810;-57
2022/04/01 15:38:17;;;;;;;1.02;0.63;;;25.00;41.30;;;;;;4957977;28;45365;-56
2022/04/01 15:40:43;;;;;;;0.63;0.60;;;25.00;41.30;;;;;;4956399;28;44967;-56
2022/04/01 15:43:09;;;;;;;0.73;0.73;;;25.00;41.30;;;;;;4945630;28;45394;-55
2022/04/01 15:45:38;;;;;;;0.75;0.75;;;25.00;41.30;;;;;;4955439;28;44800;-58
2022/04/01 15:48:06;;;;;;;0.80;0.63;;;25.00;41.30;;;;;;4953576;28;45248;-55
2022/04/01 15:50:32;;;;;;;0.70;0.70;;;25.00;41.30;;;;;;4956557;28;46546;-56
2022/04/01 15:52:59;;;;;;;0.90;0.70;;;25.00;41.30;;;;;;4956276;28;45608;-54
2022/04/01 15:55:24;;;;;;;0.68;0.60;;;25.00;41.30;;;;;;4944347;28;45171;-55
2022/04/01 15:57:50;;;;;;;1.40;0.77;;;25.00;41.30;;;;;;4959329;28;45318;-54
2022/04/01 16:00:18;;;;;;;0.60;0.60;;;25.00;41.30;;;;;;4957425;28;45951;-57
2022/04/01 16:02:48;;;;;;;1.00;0.68;;;25.00;41.30;;;;;;4955383;28;45192;-56
2022/04/01 16:05:13;;;;;;;0.60;0.60;;;25.00;41.30;;;;;;4967853;28;45218;-55
2022/04/01 16:07:40;;;;;;;0.88;0.80;;;25.00;41.30;;;;;;4940707;28;44844;-55
2022/04/01 16:10:12;;;;;;;0.70;0.60;;;25.00;41.30;;;;;;4956435;28;45885;-55
2022/04/01 16:12:42;;;;;;;1.75;0.70;;;25.00;41.30;;;;;;4934945;28;45283;-59
2022/04/01 16:15:09;;;;;;;1.00;0.70;;;25.00;41.30;;;;;;4942935;28;45594;-55
2022/04/01 16:17:35;;;;;;;0.75;0.63;;;24.90;41.30;;;;;;4948806;28;45556;-58